createdAt,value
2018-06-17T00:01:27.918Z,71.93
2018-06-17T00:03:59.233Z,70.75
2018-06-17T00:06:29.226Z,70.72
2018-06-17T00:08:58.790Z,71.04
2018-06-17T00:11:28.944Z,71.72
2018-06-17T00:13:58.364Z,72.42
2018-06-17T00:16:27.715Z,71.89
2018-06-17T00:18:57.078Z,73.08
2018-06-17T00:21:31.740Z,73.77
2018-06-17T00:24:13.189Z,73.52
2018-06-17T00:26:46.028Z,73.70
2018-06-17T00:29:20.912Z,72.97
2018-06-17T00:31:50.327Z,75.00
2018-06-17T00:34:19.611Z,73.85
2018-06-17T00:36:54.994Z,74.21
2018-06-17T00:39:29.689Z,75.05
2018-06-17T00:42:01.934Z,73.29
2018-06-17T00:44:31.373Z,73.24
2018-06-17T00:47:00.761Z,74.84
2018-06-17T00:49:30.043Z,72.43
2018-06-17T00:51:59.406Z,73.75
2018-06-17T00:54:29.830Z,73.83
2018-06-17T00:57:17.138Z,73.00
2018-06-17T00:59:46.455Z,73.28
2018-06-17T01:02:15.881Z,72.52
2018-06-17T01:04:45.192Z,73.00
2018-06-17T01:07:14.590Z,71.76
2018-06-17T01:09:43.897Z,73.12
2018-06-17T01:12:13.300Z,74.67
2018-06-17T01:14:42.585Z,72.94
2018-06-17T01:17:11.910Z,73.25
2018-06-17T01:19:41.309Z,72.71
2018-06-17T01:22:10.904Z,72.44
2018-06-17T01:24:40.165Z,71.65
2018-06-17T01:27:09.462Z,72.23
2018-06-17T01:29:38.784Z,73.30
2018-06-17T01:32:08.375Z,73.26
2018-06-17T01:34:37.515Z,71.72
2018-06-17T01:37:07.120Z,73.69
2018-06-17T01:39:36.520Z,72.36
2018-06-17T01:42:05.937Z,73.33
2018-06-17T01:44:35.457Z,73.59
2018-06-17T01:47:04.984Z,74.44
2018-06-17T01:49:34.442Z,74.64
2018-06-17T01:52:03.963Z,74.80
2018-06-17T01:54:33.552Z,74.76
2018-06-17T01:57:02.682Z,74.61
2018-06-17T01:59:32.050Z,74.20
2018-06-17T02:02:02.669Z,73.95
2018-06-17T02:04:37.362Z,73.51
2018-06-17T02:07:11.908Z,72.98
2018-06-17T02:09:46.617Z,73.80
2018-06-17T02:12:18.131Z,73.87
2018-06-17T02:14:52.555Z,73.41
2018-06-17T02:17:23.011Z,73.26
2018-06-17T02:19:53.028Z,73.16
2018-06-17T02:22:22.533Z,72.77
2018-06-17T02:24:51.865Z,72.60
2018-06-17T02:27:21.444Z,72.25
2018-06-17T02:29:50.741Z,72.92
2018-06-17T02:32:20.033Z,71.83
2018-06-17T02:34:49.411Z,71.99
2018-06-17T02:37:18.721Z,72.00
2018-06-17T02:39:48.016Z,72.63
2018-06-17T02:42:17.371Z,72.48
2018-06-17T02:44:50.862Z,72.97
2018-06-17T02:47:25.266Z,72.64
2018-06-17T02:49:54.634Z,72.32
2018-06-17T02:52:29.430Z,73.18
2018-06-17T02:54:58.739Z,72.95
2018-06-17T02:57:28.191Z,72.64
2018-06-17T02:59:57.305Z,73.04
2018-06-17T03:02:26.819Z,72.52
2018-06-17T03:04:56.115Z,71.86
2018-06-17T03:07:25.463Z,71.74
2018-06-17T03:09:54.803Z,73.08
2018-06-17T03:12:24.052Z,71.44
2018-06-17T03:14:53.315Z,71.87
2018-06-17T03:17:22.616Z,70.56
2018-06-17T03:19:52.074Z,71.00
2018-06-17T03:22:21.349Z,70.50
2018-06-17T03:24:56.195Z,71.07
2018-06-17T03:27:30.932Z,70.42
2018-06-17T03:30:05.564Z,70.30
2018-06-17T03:32:40.071Z,70.43
2018-06-17T03:35:14.463Z,69.91
2018-06-17T03:37:43.794Z,70.45
2018-06-17T03:40:13.130Z,71.09
2018-06-17T03:42:42.449Z,70.68
2018-06-17T03:45:11.755Z,71.01
2018-06-17T03:47:40.853Z,71.13
2018-06-17T03:50:10.240Z,71.19
2018-06-17T03:52:39.652Z,71.35
2018-06-17T03:55:09.097Z,70.81
2018-06-17T03:57:38.507Z,71.29
2018-06-17T04:00:07.958Z,70.86
2018-06-17T04:02:37.347Z,71.17
2018-06-17T04:05:11.950Z,71.14
2018-06-17T04:07:41.398Z,70.92
2018-06-17T04:10:11.808Z,70.94
2018-06-17T04:12:41.209Z,70.72
2018-06-17T04:15:10.539Z,70.78
2018-06-17T04:17:39.969Z,70.79
2018-06-17T04:20:09.334Z,70.16
2018-06-17T04:22:38.633Z,70.55
2018-06-17T04:25:08.020Z,70.06
2018-06-17T04:27:37.481Z,71.24
2018-06-17T04:30:06.952Z,70.64
2018-06-17T04:32:36.327Z,70.46
2018-06-17T04:35:05.719Z,70.34
2018-06-17T04:37:35.162Z,70.86
2018-06-17T04:40:04.605Z,70.51
2018-06-17T04:42:33.957Z,70.63
2018-06-17T04:45:03.329Z,70.22
2018-06-17T04:47:32.749Z,70.77
2018-06-17T04:50:02.061Z,70.51
2018-06-17T04:52:31.369Z,70.19
2018-06-17T04:55:00.683Z,69.95
2018-06-17T04:57:29.992Z,69.63
2018-06-17T04:59:59.360Z,69.74
2018-06-17T05:02:28.584Z,70.47
2018-06-17T05:04:57.885Z,69.91
2018-06-17T05:07:27.180Z,69.92
2018-06-17T05:09:56.638Z,70.06
2018-06-17T05:12:25.998Z,68.44
2018-06-17T05:14:55.285Z,67.78
2018-06-17T05:17:24.659Z,67.64
2018-06-17T05:19:54.186Z,65.51
2018-06-17T05:22:23.604Z,65.79
2018-06-17T05:24:53.165Z,65.62
2018-06-17T05:27:22.507Z,65.45
2018-06-17T05:29:51.920Z,64.77
2018-06-17T05:32:21.246Z,63.24
2018-06-17T05:34:50.560Z,63.01
2018-06-17T05:37:19.916Z,63.24
2018-06-17T05:39:49.261Z,63.61
2018-06-17T05:42:18.664Z,63.95
2018-06-17T05:44:48.010Z,64.42
2018-06-17T05:47:17.307Z,64.46
2018-06-17T05:49:46.420Z,64.24
2018-06-17T05:52:15.537Z,63.94
2018-06-17T05:54:44.942Z,61.94
2018-06-17T05:57:14.303Z,61.45
2018-06-17T05:59:43.756Z,59.84
2018-06-17T06:02:13.275Z,59.38
2018-06-17T06:04:42.615Z,59.61
2018-06-17T06:07:12.018Z,58.71
2018-06-17T06:09:41.406Z,59.51
2018-06-17T06:12:10.851Z,58.91
2018-06-17T06:14:40.317Z,58.92
2018-06-17T06:17:09.695Z,59.15
2018-06-17T06:19:39.023Z,60.25
2018-06-17T06:22:09.514Z,60.04
2018-06-17T06:24:38.853Z,59.72
2018-06-17T06:27:08.378Z,59.00
2018-06-17T06:29:37.772Z,59.28
2018-06-17T06:32:07.376Z,59.93
2018-06-17T06:34:36.787Z,58.55
2018-06-17T06:37:06.335Z,58.45
2018-06-17T06:39:35.637Z,58.13
2018-06-17T06:42:05.059Z,56.31
2018-06-17T06:44:34.424Z,56.16
2018-06-17T06:47:03.955Z,56.92
2018-06-17T06:49:33.381Z,57.50
2018-06-17T06:52:03.883Z,57.58
2018-06-17T06:54:33.319Z,56.53
2018-06-17T06:57:02.664Z,57.25
2018-06-17T06:59:32.037Z,58.16
2018-06-17T07:02:18.325Z,57.84
2018-06-17T07:05:04.560Z,59.30
2018-06-17T07:07:51.009Z,59.33
2018-06-17T07:10:26.761Z,59.83
2018-06-17T07:12:56.145Z,60.42
2018-06-17T07:15:42.346Z,60.38
2018-06-17T07:18:37.000Z,60.42
2018-06-17T07:21:07.098Z,60.60
2018-06-17T07:23:36.656Z,60.65
2018-06-17T07:26:37.177Z,59.32
2018-06-17T07:29:24.830Z,60.20
2018-06-17T07:31:54.136Z,59.82
2018-06-17T07:34:23.439Z,58.80
2018-06-17T07:36:52.820Z,58.76
2018-06-17T07:40:47.902Z,59.09
2018-06-17T07:43:17.426Z,59.15
2018-06-17T07:45:46.794Z,58.43
2018-06-17T07:50:37.281Z,58.06
2018-06-17T07:53:16.662Z,58.25
2018-06-17T07:55:46.445Z,58.70
2018-06-17T07:58:16.283Z,58.72
2018-06-17T08:00:45.636Z,58.09
2018-06-17T08:03:15.020Z,58.78
2018-06-17T08:05:44.429Z,57.74
2018-06-17T08:08:13.697Z,58.71
2018-06-17T08:10:43.048Z,57.63
2018-06-17T08:13:12.323Z,57.75
2018-06-17T08:15:41.666Z,56.92
2018-06-17T08:18:11.070Z,57.80
2018-06-17T08:20:40.463Z,57.67
2018-06-17T08:23:09.853Z,55.97
2018-06-17T08:25:39.337Z,56.09
2018-06-17T08:28:08.720Z,55.93
2018-06-17T08:30:38.290Z,54.80
2018-06-17T08:33:07.698Z,54.01
2018-06-17T08:35:37.085Z,52.93
2018-06-17T08:38:06.445Z,52.55
2018-06-17T08:40:35.904Z,52.23
2018-06-17T08:43:05.314Z,54.05
2018-06-17T08:45:34.679Z,53.01
2018-06-17T08:48:04.055Z,53.22
2018-06-17T08:50:33.445Z,53.72
2018-06-17T08:53:02.871Z,54.40
2018-06-17T08:55:32.204Z,54.18
2018-06-17T08:58:01.506Z,54.01
2018-06-17T09:00:30.871Z,54.60
2018-06-17T09:03:09.015Z,55.43
2018-06-17T09:05:40.749Z,55.26
2018-06-17T09:08:10.221Z,55.68
2018-06-17T09:10:39.728Z,55.81
2018-06-17T09:13:11.218Z,54.77
2018-06-17T09:15:43.263Z,55.82
2018-06-17T09:18:16.082Z,55.61
2018-06-17T09:20:46.412Z,54.94
2018-06-17T09:23:19.688Z,55.21
2018-06-17T09:25:49.211Z,55.43
2018-06-17T09:28:23.586Z,55.81
2018-06-17T09:30:54.717Z,54.82
2018-06-17T09:33:29.360Z,53.34
2018-06-17T09:36:00.804Z,54.02
2018-06-17T09:38:30.128Z,52.64
2018-06-17T09:40:59.435Z,51.91
2018-06-17T09:43:28.728Z,51.50
2018-06-17T09:45:58.085Z,51.46
2018-06-17T09:48:27.385Z,50.54
2018-06-17T09:50:56.782Z,51.66
2018-06-17T09:53:26.047Z,51.93
2018-06-17T09:55:55.391Z,51.28
2018-06-17T09:58:24.745Z,51.38
2018-06-17T10:00:54.051Z,52.15
2018-06-17T10:03:23.085Z,53.48
2018-06-17T10:05:52.417Z,53.60
2018-06-17T10:08:21.746Z,52.80
2018-06-17T10:10:56.713Z,52.62
2018-06-17T10:13:27.333Z,53.71
2018-06-17T10:15:56.716Z,52.26
2018-06-17T10:18:26.238Z,51.86
2018-06-17T10:20:55.560Z,52.19
2018-06-17T10:23:25.029Z,49.02
2018-06-17T10:25:58.259Z,48.47
2018-06-17T10:28:28.513Z,47.49
2018-06-17T10:30:58.961Z,48.33
2018-06-17T10:33:28.266Z,47.64
2018-06-17T10:35:57.903Z,49.13
2018-06-17T10:38:31.560Z,50.18
2018-06-17T10:41:03.065Z,49.74
2018-06-17T10:43:35.800Z,51.23
2018-06-17T10:46:05.126Z,51.88
2018-06-17T10:48:37.209Z,52.82
2018-06-17T10:51:08.847Z,54.60
2018-06-17T10:53:38.445Z,52.80
2018-06-17T10:56:08.059Z,53.07
2018-06-17T10:58:40.974Z,53.28
2018-06-17T11:01:10.490Z,51.65
2018-06-17T11:03:39.780Z,49.40
2018-06-17T11:06:09.216Z,47.76
2018-06-17T11:08:38.619Z,46.00
2018-06-17T11:11:12.217Z,46.53
2018-06-17T11:13:41.797Z,45.72
2018-06-17T11:16:11.075Z,46.88
2018-06-17T11:18:40.199Z,48.05
2018-06-17T11:21:09.531Z,49.77
2018-06-17T11:23:39.090Z,50.10
2018-06-17T11:26:08.832Z,50.31
2018-06-17T11:28:45.364Z,50.27
2018-06-17T11:31:18.162Z,51.48
2018-06-17T11:33:51.376Z,51.01
2018-06-17T11:36:21.035Z,50.81
2018-06-17T11:38:51.095Z,50.77
2018-06-17T11:41:20.439Z,49.79
2018-06-17T11:43:50.861Z,49.23
2018-06-17T11:46:21.310Z,50.43
2018-06-17T11:48:52.751Z,51.87
2018-06-17T11:51:22.226Z,51.00
2018-06-17T11:53:58.145Z,51.48
2018-06-17T11:56:28.509Z,51.67
2018-06-17T11:58:57.890Z,52.09
2018-06-17T12:01:27.308Z,53.02
2018-06-17T12:03:56.686Z,53.19
2018-06-17T12:06:26.079Z,53.35
2018-06-17T12:09:05.874Z,52.26
2018-06-17T12:11:36.130Z,53.69
2018-06-17T12:14:05.734Z,52.57
2018-06-17T12:16:40.318Z,52.56
2018-06-17T12:19:15.148Z,51.88
2018-06-17T12:21:45.216Z,50.17
2018-06-17T12:24:14.499Z,50.33
2018-06-17T12:26:43.791Z,50.22
2018-06-17T12:29:12.995Z,50.63
2018-06-17T12:31:42.326Z,50.06
2018-06-17T12:34:16.273Z,50.67
2018-06-17T12:36:45.703Z,51.08
2018-06-17T12:39:15.112Z,51.75
2018-06-17T12:41:44.396Z,51.35
2018-06-17T12:44:13.719Z,50.03
2018-06-17T12:46:43.033Z,50.79
2018-06-17T12:49:12.374Z,50.20
2018-06-17T12:51:41.834Z,49.88
2018-06-17T12:54:15.780Z,49.27
2018-06-17T12:56:45.236Z,48.49
2018-06-17T12:59:14.939Z,48.79
2018-06-17T13:01:46.596Z,49.69
2018-06-17T13:04:15.913Z,49.01
2018-06-17T13:06:45.203Z,49.75
2018-06-17T13:09:14.504Z,49.28
2018-06-17T13:11:43.793Z,47.50
2018-06-17T13:14:13.206Z,47.80
2018-06-17T13:16:42.608Z,47.74
2018-06-17T13:19:12.124Z,46.83
2018-06-17T13:21:41.470Z,45.54
2018-06-17T13:24:10.813Z,45.38
2018-06-17T13:26:40.325Z,46.29
2018-06-17T13:29:09.730Z,45.06
2018-06-17T13:31:40.214Z,45.56
2018-06-17T13:34:09.597Z,44.90
2018-06-17T13:36:38.979Z,44.25
2018-06-17T13:39:12.244Z,43.56
2018-06-17T13:41:41.831Z,44.48
2018-06-17T13:44:11.401Z,43.33
2018-06-17T13:46:40.746Z,42.65
2018-06-17T13:49:10.131Z,43.53
2018-06-17T13:51:39.578Z,43.74
2018-06-17T13:54:08.902Z,44.88
2018-06-17T13:56:42.309Z,44.35
2018-06-17T13:59:11.597Z,46.22
2018-06-17T14:01:40.888Z,46.71
2018-06-17T14:04:10.249Z,45.61
2018-06-17T14:06:39.655Z,45.20
2018-06-17T14:09:10.105Z,46.26
2018-06-17T14:11:39.409Z,45.54
2018-06-17T14:14:08.821Z,46.52
2018-06-17T14:16:38.217Z,46.23
2018-06-17T14:19:07.681Z,44.38
2018-06-17T14:21:37.236Z,44.65
2018-06-17T14:24:06.880Z,44.56
2018-06-17T14:26:36.285Z,45.08
2018-06-17T14:29:05.877Z,44.94
2018-06-17T14:31:36.954Z,45.01
2018-06-17T14:34:08.854Z,44.74
2018-06-17T14:36:42.207Z,44.47
2018-06-17T14:39:13.098Z,46.08
2018-06-17T14:41:50.560Z,45.37
2018-06-17T14:44:27.146Z,43.57
2018-06-17T14:47:59.714Z,43.65
2018-06-17T14:50:34.387Z,44.90
2018-06-17T14:53:04.989Z,44.19
2018-06-17T14:55:34.504Z,45.75
2018-06-17T14:58:04.156Z,46.83
2018-06-17T15:00:33.606Z,45.14
2018-06-17T15:03:03.494Z,45.64
2018-06-17T15:05:32.933Z,45.07
2018-06-17T15:08:02.296Z,45.57
2018-06-17T15:10:31.605Z,45.54
2018-06-17T15:13:00.856Z,45.83
2018-06-17T15:15:30.183Z,46.19
2018-06-17T15:17:59.646Z,46.89
2018-06-17T15:20:28.929Z,48.08
2018-06-17T15:22:58.321Z,47.41
2018-06-17T15:25:27.682Z,46.96
2018-06-17T15:27:57.150Z,48.18
2018-06-17T15:30:26.450Z,48.10
2018-06-17T15:33:01.158Z,48.07
2018-06-17T15:37:43.635Z,48.18
2018-06-17T15:40:12.958Z,49.35
2018-06-17T15:42:42.286Z,48.57
2018-06-17T15:45:11.619Z,48.70
2018-06-17T15:47:41.065Z,49.23
2018-06-17T15:50:10.404Z,49.42
2018-06-17T15:52:39.812Z,49.23
2018-06-17T15:55:09.226Z,49.28
2018-06-17T15:57:38.664Z,49.44
2018-06-17T16:00:08.155Z,48.74
2018-06-17T16:02:38.157Z,49.07
2018-06-17T16:05:07.730Z,49.49
2018-06-17T16:07:37.185Z,49.79
2018-06-17T16:10:06.771Z,50.05
2018-06-17T16:12:41.500Z,48.70
2018-06-17T16:15:16.021Z,48.87
2018-06-17T16:17:50.688Z,49.00
2018-06-17T16:20:25.118Z,50.20
2018-06-17T16:22:54.407Z,49.39
2018-06-17T16:25:23.675Z,50.75
2018-06-17T16:27:53.160Z,50.42
2018-06-17T16:30:22.574Z,50.84
2018-06-17T16:32:52.077Z,50.64
2018-06-17T16:35:21.157Z,51.89
2018-06-17T16:37:50.590Z,52.14
2018-06-17T16:40:19.962Z,52.19
2018-06-17T16:42:50.016Z,52.67
2018-06-17T16:45:19.398Z,52.51
2018-06-17T16:47:48.689Z,52.54
2018-06-17T16:50:18.014Z,51.96
2018-06-17T16:52:52.425Z,51.70
2018-06-17T16:57:31.960Z,52.04
2018-06-17T17:00:07.866Z,52.01
2018-06-17T17:02:38.221Z,52.89
2018-06-17T17:05:07.835Z,52.15
2018-06-17T17:07:37.431Z,51.98
2018-06-17T17:10:07.115Z,51.96
2018-06-17T17:12:36.886Z,51.76
2018-06-17T17:15:09.195Z,52.55
2018-06-17T17:17:38.782Z,52.13
2018-06-17T17:20:08.360Z,52.31
2018-06-17T17:22:37.722Z,51.94
2018-06-17T17:25:07.476Z,52.12
2018-06-17T17:27:36.999Z,51.07
2018-06-17T17:30:08.440Z,51.53
2018-06-17T17:32:45.624Z,51.98
2018-06-17T17:35:20.926Z,52.05
2018-06-17T17:37:56.066Z,50.66
2018-06-17T17:40:30.951Z,50.75
2018-06-17T17:43:02.357Z,51.46
2018-06-17T17:45:39.949Z,50.10
2018-06-17T17:48:13.461Z,50.42
2018-06-17T17:50:43.150Z,50.63
2018-06-17T17:53:17.635Z,51.55
2018-06-17T17:55:47.000Z,51.51
2018-06-17T17:58:16.330Z,50.76
2018-06-17T18:00:45.725Z,51.16
2018-06-17T18:03:15.029Z,51.92
2018-06-17T18:05:44.452Z,52.30
2018-06-17T18:08:13.762Z,52.09
2018-06-17T18:10:43.061Z,52.97
2018-06-17T18:13:30.691Z,52.74
2018-06-17T18:15:59.996Z,52.05
2018-06-17T18:18:29.364Z,52.68
2018-06-17T18:20:58.682Z,53.03
2018-06-17T18:23:28.058Z,52.19
2018-06-17T18:26:02.814Z,51.80
2018-06-17T18:28:37.287Z,52.50
2018-06-17T18:31:07.118Z,52.49
2018-06-17T18:33:41.807Z,53.89
2018-06-17T18:36:15.478Z,52.14
2018-06-17T18:38:46.083Z,53.64
2018-06-17T18:41:16.008Z,53.90
2018-06-17T18:43:46.523Z,54.13
2018-06-17T18:46:16.992Z,53.09
2018-06-17T18:48:47.079Z,52.73
2018-06-17T18:51:18.840Z,52.42
2018-06-17T18:53:51.721Z,52.74
2018-06-17T18:56:21.112Z,53.46
2018-06-17T18:58:50.437Z,53.41
2018-06-17T19:01:20.866Z,53.32
2018-06-17T19:03:53.387Z,53.57
2018-06-17T19:06:23.877Z,52.75
2018-06-17T19:08:59.035Z,53.22
2018-06-17T19:11:35.894Z,53.32
2018-06-17T19:14:15.564Z,53.47
2018-06-17T19:16:53.160Z,53.84
2018-06-17T19:19:24.045Z,53.66
2018-06-17T19:21:54.291Z,54.25
2018-06-17T19:24:23.926Z,53.60
2018-06-17T19:26:53.976Z,54.37
2018-06-17T19:29:23.592Z,54.21
2018-06-17T19:31:52.923Z,54.87
2018-06-17T19:34:22.213Z,54.01
2018-06-17T19:36:51.638Z,54.20
2018-06-17T19:39:21.264Z,54.28
2018-06-17T19:41:50.657Z,55.67
2018-06-17T19:44:20.362Z,54.04
2018-06-17T19:46:49.725Z,54.86
2018-06-17T19:49:19.130Z,55.02
2018-06-17T19:51:53.850Z,54.40
2018-06-17T19:54:28.487Z,53.46
2018-06-17T19:57:03.088Z,55.09
2018-06-17T19:59:38.880Z,54.53
2018-06-17T20:02:09.076Z,54.97
2018-06-17T20:04:40.010Z,54.41
2018-06-17T20:07:10.494Z,54.89
2018-06-17T20:09:42.428Z,54.54
2018-06-17T20:12:15.113Z,54.96
2018-06-17T20:14:44.491Z,54.43
2018-06-17T20:17:13.765Z,55.30
2018-06-17T20:19:43.154Z,55.37
2018-06-17T20:22:12.500Z,54.85
2018-06-17T20:24:41.871Z,55.33
2018-06-17T20:27:11.096Z,55.76
2018-06-17T20:29:40.554Z,56.82
2018-06-17T20:32:15.303Z,57.35
2018-06-17T20:35:49.544Z,54.79
2018-06-17T20:38:24.314Z,55.16
2018-06-17T20:40:58.738Z,54.91
2018-06-17T20:43:33.144Z,55.80
2018-06-17T20:46:02.451Z,55.05
2018-06-17T20:48:31.950Z,56.24
2018-06-17T20:51:01.258Z,55.16
2018-06-17T20:53:30.851Z,54.80
2018-06-17T20:56:03.447Z,54.22
2018-06-17T20:58:32.787Z,53.42
2018-06-17T21:01:02.159Z,54.42
2018-06-17T21:03:32.388Z,53.12
2018-06-17T21:06:01.768Z,52.49
2018-06-17T21:08:31.116Z,52.51
2018-06-17T21:11:00.445Z,52.50
2018-06-17T21:13:29.642Z,53.40
2018-06-17T21:16:00.148Z,54.05
2018-06-17T21:18:36.149Z,52.97
2018-06-17T21:21:14.690Z,53.80
2018-06-17T21:23:49.662Z,54.15
2018-06-17T21:26:26.367Z,55.02
2018-06-17T21:29:04.716Z,54.51
2018-06-17T21:31:48.651Z,54.82
2018-06-17T21:34:23.081Z,55.84
2018-06-17T21:36:52.418Z,55.76
2018-06-17T21:39:21.849Z,55.63
2018-06-17T21:44:33.355Z,57.32
2018-06-17T21:47:04.880Z,57.45
2018-06-17T21:49:34.596Z,58.62
2018-06-17T21:52:04.171Z,59.16
2018-06-17T21:54:33.962Z,59.45
2018-06-17T21:57:23.072Z,60.17
2018-06-17T21:59:52.753Z,60.89
2018-06-17T22:02:22.340Z,60.86
2018-06-17T22:04:51.779Z,60.65
2018-06-17T22:07:25.456Z,61.31
2018-06-17T22:09:59.992Z,61.01
2018-06-17T22:12:34.583Z,61.42
2018-06-17T22:15:09.446Z,60.87
2018-06-17T22:17:45.019Z,62.39
2018-06-17T22:20:14.691Z,62.63
2018-06-17T22:22:44.079Z,62.73
2018-06-17T22:25:13.719Z,62.79
2018-06-17T22:27:43.616Z,62.08
2018-06-17T22:30:16.711Z,62.17
2018-06-17T22:32:47.931Z,62.28
2018-06-17T22:35:18.516Z,61.40
2018-06-17T22:37:48.042Z,61.57
2018-06-17T22:40:41.953Z,61.88
2018-06-17T22:43:11.349Z,61.26
2018-06-17T22:45:40.873Z,61.07
2018-06-17T22:48:10.211Z,60.49
2018-06-17T22:50:39.550Z,60.81
2018-06-17T22:53:20.928Z,60.74
2018-06-17T22:55:50.284Z,61.49
2018-06-17T22:58:25.079Z,60.49
2018-06-17T23:01:02.286Z,61.10
2018-06-17T23:03:36.811Z,60.94
2018-06-17T23:06:11.438Z,62.03
2018-06-17T23:08:47.623Z,60.45
2018-06-17T23:11:26.464Z,60.65
2018-06-17T23:13:56.631Z,61.23
2018-06-17T23:16:37.333Z,60.56
2018-06-17T23:19:07.614Z,60.82
2018-06-17T23:21:37.069Z,60.15
2018-06-17T23:24:06.520Z,60.59
2018-06-17T23:26:35.982Z,59.74
2018-06-17T23:29:05.422Z,58.92
2018-06-17T23:31:35.691Z,59.14
2018-06-17T23:34:05.155Z,58.66
2018-06-17T23:36:34.645Z,59.81
2018-06-17T23:39:10.616Z,59.66
2018-06-17T23:41:41.684Z,59.35
2018-06-17T23:44:16.509Z,60.20
2018-06-17T23:46:56.479Z,59.99
2018-06-17T23:49:31.139Z,59.46
2018-06-17T23:52:05.794Z,58.98
2018-06-17T23:54:40.350Z,59.04
2018-06-17T23:57:09.786Z,58.99
2018-06-17T23:59:39.203Z,59.24
